createdAt,value
2022-11-20T00:01:37.360Z,101267.55
2022-11-20T00:04:05.825Z,101264.58
2022-11-20T00:06:34.223Z,101266.81
2022-11-20T00:09:02.832Z,101270.09
2022-11-20T00:11:32.377Z,101267.39
2022-11-20T00:14:02.686Z,101275.19
2022-11-20T00:16:33.377Z,101271.59
2022-11-20T00:19:02.430Z,101269.11
2022-11-20T00:21:31.404Z,101258.73
2022-11-20T00:23:59.895Z,101271.11
2022-11-20T00:26:29.608Z,101268.09
2022-11-20T00:29:01.604Z,101267.27
2022-11-20T00:31:31.483Z,101265.84
2022-11-20T00:33:59.800Z,101265.77
2022-11-20T00:36:31.099Z,101267.34
2022-11-20T00:38:59.707Z,101269.56
2022-11-20T00:41:31.168Z,101266.41
2022-11-20T00:43:59.577Z,101264.09
2022-11-20T00:46:28.845Z,101269.15
2022-11-20T00:48:57.458Z,101269.33
2022-11-20T00:51:27.642Z,101265.75
2022-11-20T00:53:57.939Z,101264.73
2022-11-20T00:56:26.842Z,101270.31
2022-11-20T00:58:55.342Z,101270.98
2022-11-20T01:01:26.597Z,101267.66
2022-11-20T01:03:57.243Z,101272.38
2022-11-20T01:06:31.817Z,101270.34
2022-11-20T01:09:02.738Z,101267.52
2022-11-20T01:11:37.115Z,101264.77
2022-11-20T01:14:09.349Z,101262.30
2022-11-20T01:16:49.392Z,101262.40
2022-11-20T01:19:23.137Z,101264.62
2022-11-20T01:21:54.262Z,101259.87
2022-11-20T01:24:23.930Z,101259.73
2022-11-20T01:26:53.333Z,101261.83
2022-11-20T01:29:24.982Z,101259.74
2022-11-20T01:31:54.259Z,101257.00
2022-11-20T01:34:23.729Z,101262.48
2022-11-20T01:36:54.017Z,101258.95
2022-11-20T01:39:25.250Z,101259.85
2022-11-20T01:42:13.487Z,101256.61
2022-11-20T01:44:53.141Z,101255.50
2022-11-20T01:47:38.398Z,101254.73
2022-11-20T01:50:21.060Z,101256.09
2022-11-20T01:52:54.983Z,101253.40
2022-11-20T01:55:32.163Z,101252.86
2022-11-20T01:58:01.911Z,101237.73
2022-11-20T02:00:30.324Z,101253.48
2022-11-20T02:03:01.619Z,101250.08
2022-11-20T02:05:36.671Z,101247.29
2022-11-20T02:08:06.930Z,101244.83
2022-11-20T02:10:36.891Z,101246.66
2022-11-20T02:13:24.192Z,101247.70
2022-11-20T02:15:53.204Z,101245.71
2022-11-20T02:18:23.259Z,101244.38
2022-11-20T02:21:00.508Z,101242.59
2022-11-20T02:23:32.145Z,101240.18
2022-11-20T02:26:04.773Z,101242.61
2022-11-20T02:28:33.595Z,101244.06
2022-11-20T02:31:02.375Z,101244.59
2022-11-20T02:33:30.725Z,101242.85
2022-11-20T02:35:59.079Z,101244.25
2022-11-20T02:38:27.730Z,101238.74
2022-11-20T02:40:56.187Z,101238.93
2022-11-20T02:43:24.779Z,101237.96
2022-11-20T02:45:53.103Z,101234.82
2022-11-20T02:48:22.962Z,101230.33
2022-11-20T02:50:53.378Z,101230.30
2022-11-20T02:53:21.719Z,101220.52
2022-11-20T02:55:50.074Z,101228.90
2022-11-20T02:58:18.462Z,101231.63
2022-11-20T03:00:46.837Z,101229.62
2022-11-20T03:03:15.143Z,101229.95
2022-11-20T03:05:43.523Z,101229.29
2022-11-20T03:08:11.958Z,101228.30
2022-11-20T03:10:40.140Z,101225.38
2022-11-20T03:13:08.406Z,101222.62
2022-11-20T03:15:38.203Z,101219.06
2022-11-20T03:18:06.367Z,101218.00
2022-11-20T03:20:35.055Z,101219.87
2022-11-20T03:23:03.730Z,101218.98
2022-11-20T03:25:32.735Z,101214.41
2022-11-20T03:28:00.847Z,101217.58
2022-11-20T03:30:30.926Z,101215.52
2022-11-20T03:32:59.394Z,101213.52
2022-11-20T03:35:27.711Z,101210.39
2022-11-20T03:37:55.824Z,101208.32
2022-11-20T03:40:23.974Z,101214.90
2022-11-20T03:42:52.152Z,101206.66
2022-11-20T03:45:20.544Z,101201.11
2022-11-20T03:47:51.674Z,101200.65
2022-11-20T03:50:19.801Z,101196.81
2022-11-20T03:52:47.961Z,101195.64
2022-11-20T03:55:16.445Z,101192.23
2022-11-20T03:57:44.865Z,101192.95
2022-11-20T04:00:16.821Z,101191.23
2022-11-20T04:02:44.926Z,101189.84
2022-11-20T04:05:13.109Z,101189.60
2022-11-20T04:07:41.563Z,101188.52
2022-11-20T04:10:09.940Z,101187.27
2022-11-20T04:12:38.077Z,101186.36
2022-11-20T04:15:06.547Z,101183.81
2022-11-20T04:17:35.172Z,101181.77
2022-11-20T04:20:04.780Z,101182.39
2022-11-20T04:22:35.282Z,101182.60
2022-11-20T04:25:03.657Z,101180.61
2022-11-20T04:27:32.027Z,101183.27
2022-11-20T04:30:00.141Z,101165.25
2022-11-20T04:32:28.338Z,101181.56
2022-11-20T04:34:56.442Z,101180.98
2022-11-20T04:37:24.588Z,101179.24
2022-11-20T04:39:52.739Z,101182.09
2022-11-20T04:42:30.037Z,101183.40
2022-11-20T04:44:59.711Z,101179.95
2022-11-20T04:47:28.210Z,101181.23
2022-11-20T04:49:56.402Z,101177.78
2022-11-20T04:52:25.826Z,101174.60
2022-11-20T04:54:54.469Z,101143.58
2022-11-20T04:57:22.796Z,101174.30
2022-11-20T04:59:50.878Z,101175.27
2022-11-20T05:02:19.361Z,101173.49
2022-11-20T05:04:47.660Z,101173.61
2022-11-20T05:07:16.109Z,101171.66
2022-11-20T05:09:44.286Z,101170.52
2022-11-20T05:12:12.966Z,101170.27
2022-11-20T05:14:43.784Z,101153.54
2022-11-20T05:17:13.539Z,101166.36
2022-11-20T05:19:41.763Z,101163.10
2022-11-20T05:22:09.983Z,101158.82
2022-11-20T05:24:38.150Z,101159.64
2022-11-20T05:27:07.399Z,101160.57
2022-11-20T05:29:35.546Z,101154.95
2022-11-20T05:32:03.782Z,101150.13
2022-11-20T05:34:33.194Z,101150.58
2022-11-20T05:37:01.621Z,101150.64
2022-11-20T05:39:29.796Z,101151.66
2022-11-20T05:42:17.449Z,101147.48
2022-11-20T05:44:45.588Z,101149.95
2022-11-20T05:47:13.748Z,101152.08
2022-11-20T05:49:42.005Z,101152.55
2022-11-20T05:52:10.169Z,101150.81
2022-11-20T05:54:38.308Z,101151.45
2022-11-20T05:57:06.496Z,101149.27
2022-11-20T05:59:36.992Z,101149.26
2022-11-20T06:02:06.201Z,101149.55
2022-11-20T06:04:35.776Z,101148.27
2022-11-20T06:07:05.812Z,101148.45
2022-11-20T06:09:34.976Z,101145.83
2022-11-20T06:12:03.393Z,101145.38
2022-11-20T06:14:31.765Z,101144.87
2022-11-20T06:17:00.584Z,101143.36
2022-11-20T06:19:28.937Z,101143.42
2022-11-20T06:21:57.289Z,101143.13
2022-11-20T06:24:26.628Z,101144.50
2022-11-20T06:26:54.924Z,101138.80
2022-11-20T06:29:23.575Z,101139.64
2022-11-20T06:31:52.193Z,101138.70
2022-11-20T06:34:20.639Z,101137.78
2022-11-20T06:36:48.916Z,101135.79
2022-11-20T06:39:17.289Z,101133.80
2022-11-20T06:41:45.638Z,101132.56
2022-11-20T06:44:13.935Z,101131.79
2022-11-20T06:46:42.211Z,101134.60
2022-11-20T06:49:11.154Z,101136.39
2022-11-20T06:51:39.578Z,101134.41
2022-11-20T06:54:08.026Z,101133.60
2022-11-20T06:56:36.343Z,101129.24
2022-11-20T06:59:08.501Z,101113.34
2022-11-20T07:01:36.910Z,101124.17
2022-11-20T07:04:05.342Z,101120.40
2022-11-20T07:06:33.639Z,101119.17
2022-11-20T07:09:02.755Z,101119.00
2022-11-20T07:11:31.013Z,101116.02
2022-11-20T07:13:59.334Z,101113.36
2022-11-20T07:16:27.663Z,101109.86
2022-11-20T07:18:55.942Z,101110.49
2022-11-20T07:21:24.226Z,101112.21
2022-11-20T07:23:52.599Z,101113.05
2022-11-20T07:26:21.127Z,101097.04
2022-11-20T07:28:49.465Z,101114.13
2022-11-20T07:31:19.640Z,101114.80
2022-11-20T07:33:48.436Z,101104.91
2022-11-20T07:36:16.785Z,101110.61
2022-11-20T07:38:45.070Z,101112.14
2022-11-20T07:41:13.346Z,101112.16
2022-11-20T07:43:41.929Z,101109.88
2022-11-20T07:46:10.367Z,101104.27
2022-11-20T07:48:38.843Z,101105.20
2022-11-20T07:51:07.231Z,101108.23
2022-11-20T07:53:35.702Z,101111.25
2022-11-20T07:56:04.704Z,101110.49
2022-11-20T07:58:34.166Z,101111.17
2022-11-20T08:01:08.845Z,101110.90
2022-11-20T08:03:38.899Z,101110.88
2022-11-20T08:06:07.789Z,101112.32
2022-11-20T08:08:40.108Z,101111.66
2022-11-20T08:11:29.337Z,101111.92
2022-11-20T08:14:13.123Z,101109.41
2022-11-20T08:16:46.472Z,101106.80
2022-11-20T08:19:16.592Z,101105.40
2022-11-20T08:21:45.480Z,101105.61
2022-11-20T08:24:14.341Z,101104.09
2022-11-20T08:26:42.956Z,101101.45
2022-11-20T08:29:11.340Z,101100.63
2022-11-20T08:31:39.689Z,101101.16
2022-11-20T08:34:28.037Z,101097.73
2022-11-20T08:36:56.384Z,101095.88
2022-11-20T08:39:25.393Z,101093.34
2022-11-20T08:41:54.374Z,101094.17
2022-11-20T08:44:23.057Z,101095.23
2022-11-20T08:46:51.826Z,101098.46
2022-11-20T08:49:20.869Z,101097.33
2022-11-20T08:51:52.833Z,101093.65
2022-11-20T08:54:23.082Z,101095.15
2022-11-20T08:56:51.493Z,101090.58
2022-11-20T08:59:37.229Z,101091.66
2022-11-20T09:02:09.122Z,101090.69
2022-11-20T09:04:37.696Z,101090.20
2022-11-20T09:07:06.060Z,101082.92
2022-11-20T09:09:34.706Z,101083.66
2022-11-20T09:12:03.032Z,101082.23
2022-11-20T09:14:31.650Z,101079.63
2022-11-20T09:17:00.141Z,101076.64
2022-11-20T09:22:16.852Z,101073.68
2022-11-20T09:24:46.200Z,101075.83
2022-11-20T09:27:15.586Z,101071.70
2022-11-20T09:29:43.838Z,101075.64
2022-11-20T09:32:12.120Z,101068.33
2022-11-20T09:34:40.945Z,101061.47
2022-11-20T09:37:09.308Z,101066.20
2022-11-20T09:39:40.163Z,101047.95
2022-11-20T09:42:54.116Z,101062.80
2022-11-20T09:45:44.537Z,101054.92
2022-11-20T09:48:50.022Z,101058.96
2022-11-20T09:51:43.508Z,101054.02
2022-11-20T09:54:21.741Z,101050.15
2022-11-20T09:56:56.317Z,101044.46
2022-11-20T09:59:31.808Z,101044.65
2022-11-20T10:02:01.880Z,101042.20
2022-11-20T10:04:36.771Z,101043.68
2022-11-20T10:07:32.970Z,101034.83
2022-11-20T10:10:02.088Z,101045.16
2022-11-20T10:12:44.848Z,101031.58
2022-11-20T10:15:43.276Z,101044.73
2022-11-20T10:18:24.603Z,101049.77
2022-11-20T10:20:55.529Z,101031.33
2022-11-20T10:23:32.743Z,101053.02
2022-11-20T10:26:17.889Z,101049.81
2022-11-20T10:29:09.150Z,101051.33
2022-11-20T10:31:43.632Z,101046.94
2022-11-20T10:34:27.743Z,101040.71
2022-11-20T10:36:59.727Z,101031.95
2022-11-20T10:39:43.947Z,101028.94
2022-11-20T10:42:17.806Z,101025.92
2022-11-20T10:45:05.993Z,101023.33
2022-11-20T10:47:37.262Z,101023.00
2022-11-20T10:50:12.196Z,101017.23
2022-11-20T10:53:01.874Z,101018.95
2022-11-20T10:55:40.392Z,101017.63
2022-11-20T10:58:19.913Z,101012.27
2022-11-20T11:00:48.242Z,101010.20
2022-11-20T11:03:28.646Z,101005.40
2022-11-20T11:06:38.887Z,101003.40
2022-11-20T11:09:18.952Z,100989.89
2022-11-20T11:11:47.359Z,100956.77
2022-11-20T11:14:16.905Z,100979.07
2022-11-20T11:16:59.011Z,101004.02
2022-11-20T11:19:27.324Z,101008.48
2022-11-20T11:22:00.209Z,101008.48
2022-11-20T11:24:46.240Z,101005.70
2022-11-20T11:27:18.965Z,101004.79
2022-11-20T11:29:48.230Z,101005.84
2022-11-20T11:32:21.802Z,101003.77
2022-11-20T11:35:02.075Z,101007.02
2022-11-20T11:37:39.500Z,101017.60
2022-11-20T11:40:27.598Z,101016.22
2022-11-20T11:43:01.373Z,101003.10
2022-11-20T11:45:30.037Z,101011.80
2022-11-20T11:48:02.186Z,101013.06
2022-11-20T11:50:30.998Z,101008.98
2022-11-20T11:53:16.078Z,101005.73
2022-11-20T11:56:06.638Z,100965.09
2022-11-20T11:58:44.516Z,100992.83
2022-11-20T12:01:42.577Z,100993.81
2022-11-20T12:04:47.597Z,100995.62
2022-11-20T12:07:48.037Z,100986.38
2022-11-20T12:10:24.192Z,100989.63
2022-11-20T12:13:02.035Z,100983.39
2022-11-20T12:15:32.519Z,100981.07
2022-11-20T12:18:01.889Z,100975.02
2022-11-20T12:20:41.793Z,100972.13
2022-11-20T12:23:23.932Z,100967.97
2022-11-20T12:25:55.690Z,100966.69
2022-11-20T12:28:55.981Z,100951.88
2022-11-20T12:31:24.293Z,100956.94
2022-11-20T12:34:09.569Z,100953.92
2022-11-20T12:37:00.157Z,100951.27
2022-11-20T12:39:43.801Z,100944.46
2022-11-20T12:42:30.589Z,100944.64
2022-11-20T12:45:26.110Z,100940.48
2022-11-20T12:48:16.328Z,100942.13
2022-11-20T12:51:13.900Z,100940.29
2022-11-20T12:53:56.908Z,100941.40
2022-11-20T12:56:33.135Z,100941.91
2022-11-20T12:59:36.187Z,100935.48
2022-11-20T13:02:16.084Z,100936.67
2022-11-20T13:05:09.741Z,100932.71
2022-11-20T13:07:38.699Z,100911.45
2022-11-20T13:10:20.056Z,100921.20
2022-11-20T13:13:13.319Z,100913.65
2022-11-20T13:15:53.653Z,100908.73
2022-11-20T13:18:22.438Z,100909.01
2022-11-20T13:20:52.221Z,100903.67
2022-11-20T13:23:28.743Z,100904.27
2022-11-20T13:26:18.043Z,100893.07
2022-11-20T13:28:48.627Z,100908.41
2022-11-20T13:31:32.571Z,100901.90
2022-11-20T13:34:04.580Z,100900.98
2022-11-20T13:36:33.797Z,100906.18
2022-11-20T13:39:02.314Z,100899.02
2022-11-20T13:41:36.483Z,100899.77
2022-11-20T13:44:40.040Z,100895.50
2022-11-20T13:47:26.433Z,100877.98
2022-11-20T13:49:58.350Z,100894.73
2022-11-20T13:52:48.045Z,100893.98
2022-11-20T13:55:51.378Z,100896.13
2022-11-20T13:58:33.712Z,100896.73
2022-11-20T14:01:21.048Z,100892.23
2022-11-20T14:04:06.712Z,100893.77
2022-11-20T14:06:48.380Z,100888.56
2022-11-20T14:09:31.808Z,100886.59
2022-11-20T14:12:00.927Z,100883.14
2022-11-20T14:14:31.333Z,100880.90
2022-11-20T14:17:18.074Z,100882.85
2022-11-20T14:19:48.787Z,100879.66
2022-11-20T14:22:18.027Z,100880.20
2022-11-20T14:24:47.071Z,100875.57
2022-11-20T14:27:21.973Z,100868.18
2022-11-20T14:29:51.695Z,100866.67
2022-11-20T14:32:23.466Z,100861.79
2022-11-20T14:34:52.185Z,100859.58
2022-11-20T14:37:27.557Z,100858.81
2022-11-20T14:39:57.370Z,100862.35
2022-11-20T14:42:32.030Z,100857.27
2022-11-20T14:45:01.988Z,100841.52
2022-11-20T14:47:32.308Z,100851.58
2022-11-20T14:50:05.934Z,100848.66
2022-11-20T14:52:38.620Z,100845.76
2022-11-20T14:55:09.939Z,100843.29
2022-11-20T14:57:38.390Z,100841.23
2022-11-20T15:00:28.790Z,100843.14
2022-11-20T15:02:57.298Z,100840.38
2022-11-20T15:05:47.374Z,100824.04
2022-11-20T15:08:17.368Z,100825.65
2022-11-20T15:10:50.408Z,100838.33
2022-11-20T15:13:18.766Z,100833.61
2022-11-20T15:15:50.505Z,100827.33
2022-11-20T15:18:39.445Z,100824.75
2022-11-20T15:21:13.708Z,100820.82
2022-11-20T15:23:42.748Z,100804.94
2022-11-20T15:26:19.528Z,100815.20
2022-11-20T15:28:51.364Z,100812.70
2022-11-20T15:31:22.816Z,100814.92
2022-11-20T15:33:51.764Z,100813.52
2022-11-20T15:36:20.052Z,100812.70
2022-11-20T15:38:48.490Z,100809.38
2022-11-20T15:41:16.746Z,100804.52
2022-11-20T15:43:45.141Z,100806.58
2022-11-20T15:46:21.767Z,100794.92
2022-11-20T15:48:56.580Z,100795.16
2022-11-20T15:51:30.579Z,100788.96
2022-11-20T15:54:00.574Z,100775.83
2022-11-20T15:56:29.123Z,100787.80
2022-11-20T15:58:57.585Z,100784.21
2022-11-20T16:01:26.156Z,100778.65
2022-11-20T16:03:54.504Z,100773.69
2022-11-20T16:06:23.358Z,100752.33
2022-11-20T16:08:51.775Z,100763.02
2022-11-20T16:11:20.417Z,100762.16
2022-11-20T16:14:07.142Z,100762.70
2022-11-20T16:16:37.692Z,100766.36
2022-11-20T16:19:06.458Z,100761.77
2022-11-20T16:21:35.946Z,100757.72
2022-11-20T16:24:06.532Z,100756.73
2022-11-20T16:26:36.970Z,100752.23
2022-11-20T16:29:07.275Z,100750.83
2022-11-20T16:31:36.039Z,100750.91
2022-11-20T16:34:11.943Z,100749.21
2022-11-20T16:36:51.506Z,100751.71
2022-11-20T16:39:23.691Z,100750.39
2022-11-20T16:41:53.249Z,100754.53
2022-11-20T16:44:22.344Z,100752.25
2022-11-20T16:46:50.926Z,100747.56
2022-11-20T16:49:19.426Z,100750.53
2022-11-20T16:51:47.855Z,100746.63
2022-11-20T16:54:20.851Z,100745.13
2022-11-20T16:56:52.014Z,100740.07
2022-11-20T16:59:20.738Z,100740.00
2022-11-20T17:01:49.321Z,100736.02
2022-11-20T17:04:17.818Z,100690.68
2022-11-20T17:06:46.294Z,100733.85
2022-11-20T17:09:14.813Z,100733.41
2022-11-20T17:11:43.377Z,100739.58
2022-11-20T17:14:12.725Z,100736.23
2022-11-20T17:16:41.565Z,100736.05
2022-11-20T17:19:10.050Z,100732.80
2022-11-20T17:21:39.837Z,100728.66
2022-11-20T17:24:11.651Z,100727.89
2022-11-20T17:26:41.716Z,100716.20
2022-11-20T17:29:14.304Z,100723.97
2022-11-20T17:31:43.302Z,100722.96
2022-11-20T17:34:13.868Z,100723.26
2022-11-20T17:36:45.984Z,100722.11
2022-11-20T17:39:16.117Z,100706.40
2022-11-20T17:41:45.684Z,100714.31
2022-11-20T17:44:14.037Z,100716.97
2022-11-20T17:46:42.624Z,100716.52
2022-11-20T17:49:11.282Z,100718.68
2022-11-20T17:51:40.872Z,100699.54
2022-11-20T17:54:11.165Z,100712.51
2022-11-20T17:56:58.245Z,100710.53
2022-11-20T17:59:27.369Z,100710.06
2022-11-20T18:01:59.642Z,100706.71
2022-11-20T18:04:30.888Z,100703.61
2022-11-20T18:06:59.243Z,100701.17
2022-11-20T18:09:27.887Z,100696.04
2022-11-20T18:11:56.255Z,100694.90
2022-11-20T18:14:34.903Z,100691.80
2022-11-20T18:17:06.848Z,100693.09
2022-11-20T18:19:55.745Z,100695.29
2022-11-20T18:22:31.662Z,100693.52
2022-11-20T18:25:00.019Z,100693.34
2022-11-20T18:27:28.145Z,100689.71
2022-11-20T18:29:56.551Z,100692.48
2022-11-20T18:32:24.999Z,100690.84
2022-11-20T18:34:53.507Z,100690.13
2022-11-20T18:37:28.526Z,100686.48
2022-11-20T18:39:57.194Z,100687.08
2022-11-20T18:42:44.418Z,100683.23
2022-11-20T18:45:12.784Z,100680.73
2022-11-20T18:47:41.120Z,100682.31
2022-11-20T18:50:09.851Z,100681.69
2022-11-20T18:52:41.875Z,100684.16
2022-11-20T18:55:11.239Z,100682.95
2022-11-20T18:57:40.463Z,100685.66
2022-11-20T19:00:10.425Z,100685.25
2022-11-20T19:05:27.896Z,100681.16
2022-11-20T19:07:56.324Z,100663.05
2022-11-20T19:10:24.929Z,100666.39
2022-11-20T19:12:53.164Z,100674.02
2022-11-20T19:15:22.312Z,100677.14
2022-11-20T19:17:53.615Z,100672.10
2022-11-20T19:20:21.863Z,100658.30
2022-11-20T19:22:51.251Z,100672.35
2022-11-20T19:25:19.467Z,100674.73
2022-11-20T19:27:47.735Z,100674.11
2022-11-20T19:30:15.987Z,100676.39
2022-11-20T19:32:44.151Z,100674.85
2022-11-20T19:35:13.463Z,100674.23
2022-11-20T19:37:41.776Z,100672.16
2022-11-20T19:40:10.306Z,100670.21
2022-11-20T19:42:39.569Z,100669.36
2022-11-20T19:45:08.575Z,100669.71
2022-11-20T19:48:06.023Z,100669.57
2022-11-20T19:50:25.215Z,100667.12
2022-11-20T19:52:58.523Z,100664.34
2022-11-20T19:55:27.384Z,100663.93
2022-11-20T19:57:56.519Z,100660.95
2022-11-20T20:00:31.207Z,100660.38
2022-11-20T20:03:01.140Z,100661.26
2022-11-20T20:05:29.615Z,100658.98
2022-11-20T20:07:57.921Z,100656.02
2022-11-20T20:10:26.107Z,100652.24
2022-11-20T20:12:54.363Z,100658.17
2022-11-20T20:15:22.623Z,100658.71
2022-11-20T20:17:54.167Z,100644.20
2022-11-20T20:20:22.753Z,100664.98
2022-11-20T20:22:51.250Z,100661.16
2022-11-20T20:25:19.935Z,100667.77
2022-11-20T20:27:52.316Z,100630.39
2022-11-20T20:30:20.674Z,100674.67
2022-11-20T20:32:53.313Z,100675.85
2022-11-20T20:35:24.503Z,100661.33
2022-11-20T20:37:53.214Z,100678.40
2022-11-20T20:40:21.694Z,100680.83
2022-11-20T20:42:50.260Z,100676.52
2022-11-20T20:45:18.582Z,100650.57
2022-11-20T20:47:46.858Z,100674.89
2022-11-20T20:50:15.787Z,100678.92
2022-11-20T20:52:44.651Z,100662.50
2022-11-20T20:55:12.974Z,100680.39
2022-11-20T20:57:41.901Z,100677.25
2022-11-20T21:00:11.644Z,100678.59
2022-11-20T21:02:40.065Z,100675.79
2022-11-20T21:05:08.872Z,100677.27
2022-11-20T21:07:57.428Z,100676.23
2022-11-20T21:10:25.723Z,100677.44
2022-11-20T21:12:54.090Z,100680.92
2022-11-20T21:15:22.274Z,100676.36
2022-11-20T21:17:51.110Z,100677.52
2022-11-20T21:20:37.628Z,100680.88
2022-11-20T21:23:10.905Z,100676.75
2022-11-20T21:25:39.712Z,100683.03
2022-11-20T21:28:08.431Z,100681.50
2022-11-20T21:30:37.797Z,100675.63
2022-11-20T21:33:06.655Z,100671.40
2022-11-20T21:35:35.386Z,100671.95
2022-11-20T21:38:04.192Z,100651.70
2022-11-20T21:40:36.144Z,100668.05
2022-11-20T21:43:04.620Z,100667.45
2022-11-20T21:45:32.940Z,100667.17
2022-11-20T21:48:01.240Z,100665.75
2022-11-20T21:50:30.145Z,100665.55
2022-11-20T21:52:58.441Z,100666.08
2022-11-20T21:55:27.179Z,100664.15
2022-11-20T21:57:56.181Z,100663.71
2022-11-20T22:00:24.647Z,100650.88
2022-11-20T22:02:53.230Z,100661.48
2022-11-20T22:05:21.504Z,100664.08
2022-11-20T22:07:49.887Z,100663.09
2022-11-20T22:10:18.834Z,100663.34
2022-11-20T22:12:47.379Z,100660.09
2022-11-20T22:15:27.991Z,100660.77
2022-11-20T22:18:13.079Z,100656.54
2022-11-20T22:20:41.860Z,100658.76
2022-11-20T22:23:10.039Z,100658.70
2022-11-20T22:25:38.519Z,100659.53
2022-11-20T22:28:06.825Z,100644.38
2022-11-20T22:30:35.088Z,100652.06
2022-11-20T22:33:03.280Z,100652.86
2022-11-20T22:35:31.480Z,100642.52
2022-11-20T22:37:59.780Z,100658.06
2022-11-20T22:40:28.144Z,100656.34
2022-11-20T22:42:56.711Z,100657.94
2022-11-20T22:45:25.124Z,100658.87
2022-11-20T22:47:54.033Z,100654.61
2022-11-20T22:50:25.584Z,100656.15
2022-11-20T22:52:55.911Z,100653.23
2022-11-20T22:55:24.076Z,100656.52
2022-11-20T22:57:52.174Z,100638.77
2022-11-20T23:00:20.593Z,100655.90
2022-11-20T23:02:48.929Z,100652.98
2022-11-20T23:05:17.052Z,100661.06
2022-11-20T23:07:45.302Z,100662.23
2022-11-20T23:10:13.881Z,100644.04
2022-11-20T23:12:42.039Z,100655.69
2022-11-20T23:15:10.979Z,100656.52
2022-11-20T23:17:39.145Z,100653.05
2022-11-20T23:20:08.362Z,100654.05
2022-11-20T23:22:37.341Z,100651.88
2022-11-20T23:25:06.382Z,100654.26
2022-11-20T23:27:34.476Z,100633.95
2022-11-20T23:30:02.871Z,100650.30
2022-11-20T23:32:31.253Z,100650.85
2022-11-20T23:34:59.465Z,100648.99
2022-11-20T23:37:27.640Z,100649.67
2022-11-20T23:39:55.739Z,100647.34
2022-11-20T23:42:24.443Z,100645.75
2022-11-20T23:44:52.791Z,100644.82
2022-11-20T23:47:21.076Z,100637.79
2022-11-20T23:49:49.593Z,100636.32
2022-11-20T23:52:17.912Z,100630.27
2022-11-20T23:54:46.352Z,100631.24
2022-11-20T23:57:14.497Z,100627.63
2022-11-20T23:59:42.611Z,100624.92
